Time;durP1;ratioP1;P1;durP2;ratioP2;P2;SDS_P1;SDS_P2;PMS_P1;PMS_P2;Temp;Humidity;BMP_temperature;BMP_pressure;BME280_temperature;BME280_humidity;BME280_pressure;Samples;Min_cycle;Max_cycle;Signal;HPM_P1;HPM_P2
2022/12/01 00:01:56;;;;;;;;;;;;;;;7.34;94.02;100230.91;5114157;28;19911;-83
2022/12/01 00:04:22;;;;;;;;;;;;;;;7.22;95.04;100229.97;5113959;28;19969;-84
2022/12/01 00:06:47;;;;;;;;;;;;;;;7.12;95.86;100229.00;5095906;28;19915;-82
2022/12/01 00:11:56;;;;;;;;;;;;;;;7.07;97.24;100228.97;5116445;27;19922;-82
2022/12/01 00:14:21;;;;;;;;;;;;;;;6.96;97.44;100220.13;5134365;27;19915;-83
2022/12/01 00:16:46;;;;;;;;;;;;;;;7.07;97.45;100222.84;5134359;27;20281;-82
2022/12/01 00:19:12;;;;;;;;;;;;;;;7.08;96.93;100222.00;5133778;27;19917;-83
2022/12/01 00:21:37;;;;;;;;;;;;;;;6.88;98.22;100221.84;5133869;27;19911;-82
2022/12/01 00:24:03;;;;;;;;;;;;;;;7.05;97.98;100221.97;5115131;27;19911;-82
2022/12/01 00:26:28;;;;;;;;;;;;;;;6.98;97.62;100221.94;5133981;27;19922;-82
2022/12/01 00:28:55;;;;;;;;;;;;;;;6.98;97.66;100226.28;5134453;27;19947;-83
2022/12/01 00:31:20;;;;;;;;;;;;;;;7.07;97.31;100221.09;5133807;27;19911;-82
2022/12/01 00:33:46;;;;;;;;;;;;;;;6.84;98.80;100226.16;5121797;27;19975;-81
2022/12/01 00:36:11;;;;;;;;;;;;;;;6.92;98.17;100210.47;5122536;27;19919;-80
2022/12/01 00:38:37;;;;;;;;;;;;;;;6.91;98.41;100217.47;5134671;27;19991;-81
2022/12/01 00:41:02;;;;;;;;;;;;;;;7.01;98.00;100217.56;5134179;27;20395;-82
2022/12/01 00:43:27;;;;;;;;;;;;;;;7.05;97.93;100217.59;5134095;27;19911;-82
2022/12/01 00:45:55;;;;;;;;;;;;;;;6.98;97.65;100213.16;5133653;27;19918;-83
2022/12/01 00:48:20;;;;;;;;;;;;;;;7.19;96.88;100211.56;5133489;27;19915;-82
2022/12/01 00:50:46;;;;;;;;;;;;;;;7.16;96.28;100215.06;5133401;27;19976;-82
2022/12/01 00:53:11;;;;;;;;;;;;;;;7.19;96.00;100214.19;5132844;27;19915;-82
2022/12/01 00:55:36;;;;;;;;;;;;;;;7.36;95.95;100212.56;5133546;27;19911;-81
2022/12/01 00:58:02;;;;;;;;;;;;;;;7.14;96.41;100209.78;5133883;27;20344;-81
2022/12/01 01:00:27;;;;;;;;;;;;;;;7.11;97.04;100207.16;5133388;27;19954;-82
2022/12/01 01:02:52;;;;;;;;;;;;;;;7.03;97.59;100200.97;5119141;27;19923;-81
2022/12/01 01:05:17;;;;;;;;;;;;;;;7.13;97.01;100202.78;5113322;28;19912;-81
2022/12/01 01:07:43;;;;;;;;;;;;;;;7.01;97.64;100202.69;5112831;28;19934;-81
2022/12/01 01:10:09;;;;;;;;;;;;;;;7.11;97.76;100195.78;5112670;28;20022;-81
2022/12/01 01:12:34;;;;;;;;;;;;;;;7.04;97.70;100193.97;5112779;28;19967;-81
2022/12/01 01:14:59;;;;;;;;;;;;;;;7.10;97.32;100186.16;5125578;27;19922;-81
2022/12/01 01:17:25;;;;;;;;;;;;;;;7.08;97.05;100182.66;5132968;27;20006;-82
2022/12/01 01:19:51;;;;;;;;;;;;;;;6.96;97.76;100183.41;5133096;27;20380;-81
2022/12/01 01:22:17;;;;;;;;;;;;;;;7.00;99.07;100185.22;5133124;27;19918;-82
2022/12/01 01:24:42;;;;;;;;;;;;;;;7.05;97.89;100185.25;5132675;27;20400;-82
2022/12/01 01:27:07;;;;;;;;;;;;;;;7.04;97.66;100178.22;5133213;27;19919;-84
2022/12/01 01:29:32;;;;;;;;;;;;;;;7.16;97.17;100173.94;5132687;27;20010;-83
2022/12/01 01:31:58;;;;;;;;;;;;;;;7.01;97.76;100171.22;5132337;27;20365;-83
2022/12/01 01:34:23;;;;;;;;;;;;;;;7.12;97.45;100173.91;5133173;27;19911;-82
2022/12/01 01:36:48;;;;;;;;;;;;;;;7.09;97.40;100171.25;5128316;27;19915;-81
2022/12/01 01:39:14;;;;;;;;;;;;;;;7.24;96.38;100163.50;5132347;27;19915;-82
2022/12/01 01:41:39;;;;;;;;;;;;;;;7.27;96.13;100163.50;5131272;27;20018;-81
2022/12/01 01:44:24;;;;;;;;;;;;;;;7.26;96.21;100166.13;5132781;27;19915;-82
2022/12/01 01:46:50;;;;;;;;;;;;;;;7.25;96.03;100161.75;5132435;27;19951;-82
2022/12/01 01:49:15;;;;;;;;;;;;;;;7.42;96.00;100169.72;5132090;27;19958;-82
2022/12/01 01:51:43;;;;;;;;;;;;;;;7.41;94.59;100167.97;5132286;27;19951;-82
2022/12/01 01:54:23;;;;;;;;;;;;;;;7.35;95.15;100171.44;5132726;27;19999;-81
2022/12/01 01:56:49;;;;;;;;;;;;;;;7.18;95.96;100160.81;5118453;27;19915;-81
2022/12/01 01:59:17;;;;;;;;;;;;;;;7.07;96.81;100159.88;5111963;28;19912;-82
2022/12/01 02:01:44;;;;;;;;;;;;;;;7.11;96.59;100166.91;5111712;28;19954;-81
2022/12/01 02:04:09;;;;;;;;;;;;;;;7.13;97.31;100170.44;5111533;27;19916;-81
2022/12/01 02:06:34;;;;;;;;;;;;;;;7.24;96.20;100167.88;5112213;28;19984;-82
2022/12/01 02:09:00;;;;;;;;;;;;;;;7.18;95.93;100166.06;5111889;28;19923;-82
2022/12/01 02:11:34;;;;;;;;;;;;;;;7.10;96.33;100157.28;5111842;28;19916;-81
2022/12/01 02:14:06;;;;;;;;;;;;;;;7.08;97.37;100162.53;5129478;27;19915;-82
2022/12/01 02:16:41;;;;;;;;;;;;;;;7.08;97.07;100154.66;5131256;27;19916;-82
2022/12/01 02:19:24;;;;;;;;;;;;;;;7.17;95.97;100153.84;5132273;27;19934;-82
2022/12/01 02:22:08;;;;;;;;;;;;;;;7.14;96.23;100149.44;5131795;28;19911;-81
2022/12/01 02:24:42;;;;;;;;;;;;;;;7.20;96.75;100150.34;5132298;28;20029;-82
2022/12/01 02:27:13;;;;;;;;;;;;;;;7.04;96.54;100152.00;5091034;28;19920;-81
2022/12/01 02:29:57;;;;;;;;;;;;;;;7.07;96.65;100154.63;5091399;28;19935;-83
2022/12/01 02:32:31;;;;;;;;;;;;;;;6.99;97.09;100144.09;5080023;28;19943;-81
2022/12/01 02:35:08;;;;;;;;;;;;;;;7.00;97.14;100140.63;5070023;28;20325;-82
2022/12/01 02:37:39;;;;;;;;;;;;;;;6.88;98.09;100143.16;5069404;28;19932;-81
2022/12/01 02:40:19;;;;;;;;;;;;;;;7.11;97.21;100141.56;5070892;28;19920;-81
2022/12/01 02:42:58;;;;;;;;;;;;;;;7.24;95.17;100141.63;5072274;28;20378;-81
2022/12/01 02:45:34;;;;;;;;;;;;;;;7.22;95.88;100139.00;5075084;28;19962;-82
2022/12/01 02:48:01;;;;;;;;;;;;;;;7.31;94.65;100133.78;5074896;28;20413;-82
2022/12/01 02:50:28;;;;;;;;;;;;;;;7.22;95.13;100139.00;5075340;28;19916;-82
2022/12/01 02:52:54;;;;;;;;;;;;;;;7.25;95.10;100135.53;5074960;28;19970;-82
2022/12/01 02:55:19;;;;;;;;;;;;;;;7.21;95.04;100139.84;5074919;28;19912;-82
2022/12/01 02:57:44;;;;;;;;;;;;;;;7.26;95.58;100132.91;5076235;28;20404;-82
2022/12/01 03:00:12;;;;;;;;;;;;;;;7.28;95.51;100133.78;5074878;28;19923;-81
2022/12/01 03:03:00;;;;;;;;;;;;;;;7.13;96.01;100131.06;5085494;28;19912;-82
2022/12/01 03:05:26;;;;;;;;;;;;;;;7.02;96.52;100132.75;5084455;28;19915;-82
2022/12/01 03:07:51;;;;;;;;;;;;;;;7.04;96.32;100129.25;5093367;28;19912;-83
2022/12/01 03:10:24;;;;;;;;;;;;;;;7.14;95.97;100131.06;5094977;28;19911;-82
2022/12/01 03:13:07;;;;;;;;;;;;;;;7.19;96.29;100127.63;5094541;28;19919;-83
2022/12/01 03:15:45;;;;;;;;;;;;;;;7.17;95.35;100125.84;5094774;28;19919;-82
2022/12/01 03:18:33;;;;;;;;;;;;;;;7.09;96.30;100126.66;5094070;28;19908;-83
2022/12/01 03:21:05;;;;;;;;;;;;;;;7.10;96.45;100126.66;5074270;28;19917;-83
2022/12/01 03:23:32;;;;;;;;;;;;;;;7.16;95.68;100126.72;5074265;28;20321;-82
2022/12/01 03:25:59;;;;;;;;;;;;;;;7.19;96.25;100131.09;5096976;28;19937;-82
2022/12/01 03:28:27;;;;;;;;;;;;;;;6.96;96.42;100126.59;5114972;28;20711;-85
2022/12/01 03:30:57;;;;;;;;;;;;;;;7.06;97.43;100131.88;5114609;27;19916;-84
2022/12/01 03:33:25;;;;;;;;;;;;;;;6.91;96.87;100130.94;5116788;27;19918;-83
2022/12/01 03:36:13;;;;;;;;;;;;;;;6.80;97.92;100130.00;5135085;27;19995;-83
2022/12/01 03:38:41;;;;;;;;;;;;;;;6.63;99.18;100137.72;5135045;27;20373;-83
2022/12/01 03:41:09;;;;;;;;;;;;;;;6.79;99.07;100141.34;5134757;27;20030;-84
2022/12/01 03:43:37;;;;;;;;;;;;;;;6.90;98.37;100129.16;5135349;27;19911;-83
2022/12/01 03:46:02;;;;;;;;;;;;;;;6.87;98.38;100121.28;5135010;27;19915;-83
2022/12/01 03:48:28;;;;;;;;;;;;;;;6.85;98.61;100136.13;5134903;27;19918;-83
2022/12/01 03:51:04;;;;;;;;;;;;;;;6.77;100.00;100133.47;5134936;27;20304;-83
2022/12/01 03:53:33;;;;;;;;;;;;;;;6.58;99.98;100137.69;5135111;27;19923;-83
2022/12/01 03:56:01;;;;;;;;;;;;;;;6.68;100.00;100136.00;5134349;27;19912;-83
2022/12/01 03:58:32;;;;;;;;;;;;;;;6.82;99.59;100130.88;5134843;27;19915;-81
2022/12/01 04:00:58;;;;;;;;;;;;;;;6.80;99.44;100124.75;5118343;27;20010;-81
2022/12/01 04:03:24;;;;;;;;;;;;;;;6.99;97.98;100131.84;5117553;27;20011;-82
2022/12/01 04:05:50;;;;;;;;;;;;;;;6.94;98.11;100122.22;5134508;27;19919;-81
2022/12/01 04:08:15;;;;;;;;;;;;;;;7.13;97.65;100126.69;5134807;27;19911;-82
2022/12/01 04:10:40;;;;;;;;;;;;;;;7.11;97.10;100130.19;5134737;27;19958;-82
2022/12/01 04:13:10;;;;;;;;;;;;;;;7.13;96.95;100131.94;5134508;27;20001;-81
2022/12/01 04:15:36;;;;;;;;;;;;;;;7.18;97.59;100131.97;5133902;27;20650;-82
2022/12/01 04:18:01;;;;;;;;;;;;;;;7.19;95.78;100136.34;5134357;27;20373;-82
2022/12/01 04:20:27;;;;;;;;;;;;;;;7.25;95.85;100131.13;5131063;27;19915;-82
2022/12/01 04:22:52;;;;;;;;;;;;;;;7.19;95.57;100131.09;5142677;27;19915;-82
2022/12/01 04:25:17;;;;;;;;;;;;;;;7.25;95.09;100127.66;5124390;27;20052;-81
2022/12/01 04:27:42;;;;;;;;;;;;;;;7.22;94.72;100131.13;5120925;27;19912;-82
2022/12/01 04:30:09;;;;;;;;;;;;;;;7.27;94.89;100126.75;5113629;28;19918;-82
2022/12/01 04:32:41;;;;;;;;;;;;;;;7.21;94.67;100125.88;5113707;27;19919;-82
2022/12/01 04:35:08;;;;;;;;;;;;;;;7.16;95.22;100129.34;5113717;28;19911;-82
2022/12/01 04:37:33;;;;;;;;;;;;;;;7.18;95.21;100126.72;5113401;28;19918;-81
2022/12/01 04:39:59;;;;;;;;;;;;;;;7.15;95.95;100129.31;5113540;28;20107;-81
2022/12/01 04:42:24;;;;;;;;;;;;;;;7.15;95.41;100131.94;5129580;27;19957;-81
2022/12/01 04:44:49;;;;;;;;;;;;;;;7.21;94.85;100125.88;5133688;27;19911;-80
2022/12/01 04:47:14;;;;;;;;;;;;;;;7.11;95.47;100124.94;5133435;27;20293;-81
2022/12/01 04:49:40;;;;;;;;;;;;;;;7.03;95.80;100139.75;5120536;27;19922;-83
2022/12/01 04:52:06;;;;;;;;;;;;;;;7.04;96.34;100136.25;5130588;27;19947;-81
2022/12/01 04:54:31;;;;;;;;;;;;;;;7.16;95.87;100138.97;5101397;27;20312;-84
2022/12/01 04:56:57;;;;;;;;;;;;;;;7.09;94.74;100140.69;5112964;28;19911;-85
2022/12/01 04:59:22;;;;;;;;;;;;;;;7.07;95.23;100139.78;5112803;28;20425;-84
2022/12/01 05:01:47;;;;;;;;;;;;;;;6.89;97.15;100145.78;5117690;27;20444;-84
2022/12/01 05:04:13;;;;;;;;;;;;;;;6.95;96.38;100137.06;5131800;27;20013;-85
2022/12/01 05:06:38;;;;;;;;;;;;;;;6.90;96.30;100136.16;5113720;28;19912;-85
2022/12/01 05:09:04;;;;;;;;;;;;;;;6.74;97.21;100143.91;5123416;27;19917;-83
2022/12/01 05:11:31;;;;;;;;;;;;;;;6.70;97.59;100146.50;5150955;27;19911;-83
2022/12/01 05:13:56;;;;;;;;;;;;;;;6.80;96.79;100150.97;5156935;27;19951;-85
2022/12/01 05:16:23;;;;;;;;;;;;;;;6.81;96.32;100150.06;5122276;27;19938;-87
2022/12/01 05:18:50;;;;;;;;;;;;;;;6.64;96.58;100147.31;5114897;27;19928;-87
2022/12/01 05:21:16;;;;;;;;;;;;;;;6.81;96.43;100145.72;5125951;27;19919;-89
2022/12/01 05:23:41;;;;;;;;;;;;;;;6.74;96.20;100157.03;5097283;28;19972;-86
2022/12/01 05:26:08;;;;;;;;;;;;;;;6.84;95.51;100152.72;5094532;28;19915;-87
2022/12/01 05:28:34;;;;;;;;;;;;;;;6.69;96.38;100152.59;5123888;27;19926;-87
2022/12/01 05:31:00;;;;;;;;;;;;;;;6.62;96.05;100149.06;5127599;27;19919;-90
2022/12/01 05:33:26;;;;;;;;;;;;;;;6.57;96.19;100148.16;5141630;27;19915;-85
2022/12/01 05:35:53;;;;;;;;;;;;;;;6.62;96.17;100147.31;5120378;27;19923;-84
2022/12/01 05:38:18;;;;;;;;;;;;;;;6.69;95.57;100147.34;5125228;27;19908;-85
2022/12/01 05:40:51;;;;;;;;;;;;;;;6.61;96.00;100142.06;5133371;27;19911;-87
2022/12/01 05:43:17;;;;;;;;;;;;;;;6.69;95.16;100147.34;5133366;27;19921;-87
2022/12/01 05:45:42;;;;;;;;;;;;;;;6.58;95.73;100148.16;5132778;27;19911;-83
2022/12/01 05:48:07;;;;;;;;;;;;;;;6.62;95.55;100149.94;5129615;27;19968;-81
2022/12/01 05:50:37;;;;;;;;;;;;;;;6.66;95.87;100157.81;5125785;27;19915;-82
2022/12/01 05:53:02;;;;;;;;;;;;;;;6.63;96.96;100154.31;5132354;27;19911;-82
2022/12/01 05:55:27;;;;;;;;;;;;;;;6.49;96.95;100149.81;5132173;27;20087;-83
2022/12/01 05:57:52;;;;;;;;;;;;;;;6.52;97.63;100155.97;5132641;27;19911;-84
2022/12/01 06:00:18;;;;;;;;;;;;;;;6.55;96.93;100163.88;5135011;27;20297;-84
2022/12/01 06:02:44;;;;;;;;;;;;;;;6.47;96.96;100167.28;5130860;27;20404;-84
2022/12/01 06:05:09;;;;;;;;;;;;;;;6.39;98.19;100165.44;5135127;27;19918;-86
2022/12/01 06:07:38;;;;;;;;;;;;;;;6.48;97.77;100164.66;5133874;27;20003;-86
2022/12/01 06:10:04;;;;;;;;;;;;;;;6.43;97.82;100161.13;5122893;27;19919;-84
2022/12/01 06:12:29;;;;;;;;;;;;;;;6.38;98.32;100168.97;5118252;28;20423;-85
2022/12/01 06:14:55;;;;;;;;;;;;;;;6.56;98.15;100165.59;5131982;27;20009;-85
2022/12/01 06:17:20;;;;;;;;;;;;;;;6.49;97.94;100168.16;5131149;27;20439;-84
2022/12/01 06:19:46;;;;;;;;;;;;;;;6.42;98.38;100172.47;5112511;27;19911;-84
2022/12/01 06:22:12;;;;;;;;;;;;;;;6.58;98.42;100171.75;5122240;27;20351;-85
2022/12/01 06:24:37;;;;;;;;;;;;;;;6.44;97.47;100168.13;5112718;28;19923;-85
2022/12/01 06:27:02;;;;;;;;;;;;;;;6.13;99.17;100172.19;5102694;28;20384;-85
2022/12/01 06:29:28;;;;;;;;;;;;;;;6.04;100.00;100173.84;5109958;28;19923;-85
2022/12/01 06:31:53;;;;;;;;;;;;;;;6.14;100.00;100172.19;5110696;28;19911;-84
2022/12/01 06:34:18;;;;;;;;;;;;;;;6.11;100.00;100177.41;5110952;28;19916;-85
2022/12/01 06:36:44;;;;;;;;;;;;;;;6.24;99.66;100178.41;5110917;28;19915;-84
2022/12/01 06:39:09;;;;;;;;;;;;;;;6.33;98.96;100173.25;5110862;28;20399;-85
2022/12/01 06:41:35;;;;;;;;;;;;;;;6.38;97.65;100175.91;5109548;28;19912;-85
2022/12/01 06:44:00;;;;;;;;;;;;;;;6.44;97.88;100176.88;5111109;28;20369;-84
2022/12/01 06:46:26;;;;;;;;;;;;;;;6.42;96.55;100181.22;5100000;28;19915;-84
2022/12/01 06:48:51;;;;;;;;;;;;;;;6.38;96.21;100176.81;5110178;28;20002;-84
2022/12/01 06:51:17;;;;;;;;;;;;;;;6.36;96.19;100180.28;5111177;28;19995;-84
2022/12/01 06:53:42;;;;;;;;;;;;;;;6.37;96.13;100177.66;5097984;28;19973;-85
2022/12/01 06:56:08;;;;;;;;;;;;;;;6.26;95.71;100182.81;5106967;28;19923;-85
2022/12/01 06:58:33;;;;;;;;;;;;;;;6.35;95.96;100176.78;5096623;28;19912;-85
2022/12/01 07:00:59;;;;;;;;;;;;;;;6.37;96.21;100184.66;5101148;28;19915;-85
2022/12/01 07:03:24;;;;;;;;;;;;;;;6.26;95.52;100184.56;5101404;28;20377;-87
2022/12/01 07:05:59;;;;;;;;;;;;;;;6.41;95.76;100181.19;5100479;28;20377;-87
2022/12/01 07:08:25;;;;;;;;;;;;;;;6.59;94.98;100177.88;5104819;28;19919;-86
2022/12/01 07:11:04;;;;;;;;;;;;;;;6.54;94.52;100180.44;5110720;28;19918;-85
2022/12/01 07:13:30;;;;;;;;;;;;;;;6.34;95.12;100180.25;5109363;28;19963;-86
2022/12/01 07:15:56;;;;;;;;;;;;;;;6.41;96.05;100182.09;5113664;28;19958;-87
2022/12/01 07:18:21;;;;;;;;;;;;;;;6.28;95.92;100182.81;5117695;28;19970;-86
2022/12/01 07:20:46;;;;;;;;;;;;;;;6.28;96.31;100178.44;5108179;28;19947;-88
2022/12/01 07:23:12;;;;;;;;;;;;;;;6.34;97.27;100182.00;5096655;28;19924;-87
2022/12/01 07:25:37;;;;;;;;;;;;;;;6.32;97.09;100192.47;5109697;28;19926;-87
2022/12/01 07:28:03;;;;;;;;;;;;;;;6.50;96.81;100185.66;5126365;28;19919;-86
2022/12/01 07:30:28;;;;;;;;;;;;;;;6.51;96.38;100185.66;5127599;27;19913;-87
2022/12/01 07:32:53;;;;;;;;;;;;;;;6.48;95.87;100187.38;5130585;27;20439;-87
2022/12/01 07:35:19;;;;;;;;;;;;;;;6.38;96.80;100184.69;5129290;27;19976;-87
2022/12/01 07:37:44;;;;;;;;;;;;;;;6.44;97.45;100189.97;5129744;27;19972;-88
2022/12/01 07:40:10;;;;;;;;;;;;;;;6.51;97.61;100184.81;5129232;27;19926;-89
2022/12/01 07:42:35;;;;;;;;;;;;;;;6.36;97.28;100189.00;5120812;27;20019;-88
2022/12/01 07:45:01;;;;;;;;;;;;;;;6.18;98.02;100184.47;5126248;27;20289;-88
2022/12/01 07:47:26;;;;;;;;;;;;;;;6.34;98.05;100192.50;5111108;27;19911;-87
2022/12/01 07:49:52;;;;;;;;;;;;;;;6.25;97.42;100186.28;5130352;27;20010;-90
2022/12/01 07:52:17;;;;;;;;;;;;;;;6.32;97.77;100186.34;5130051;27;19915;-87
2022/12/01 07:54:42;;;;;;;;;;;;;;;6.57;96.88;100182.22;5107018;27;20448;-88
2022/12/01 07:57:08;;;;;;;;;;;;;;;6.92;96.06;100184.25;5129640;27;19919;-88
2022/12/01 07:59:33;;;;;;;;;;;;;;;6.84;94.40;100189.44;5129963;27;19915;-87
2022/12/01 08:01:58;;;;;;;;;;;;;;;6.50;95.71;100185.66;5130057;27;19916;-88
2022/12/01 08:04:24;;;;;;;;;;;;;;;6.52;95.92;100192.69;5110183;27;19976;-88
2022/12/01 08:06:49;;;;;;;;;;;;;;;6.45;96.48;100198.72;5129818;27;19915;-88
2022/12/01 08:09:16;;;;;;;;;;;;;;;6.53;96.44;100190.91;5129779;27;20738;-89
2022/12/01 08:11:41;;;;;;;;;;;;;;;6.61;95.88;100190.13;5130164;27;19979;-88
2022/12/01 08:14:06;;;;;;;;;;;;;;;6.84;94.83;100194.69;5129955;27;19911;-88
2022/12/01 08:16:32;;;;;;;;;;;;;;;6.59;93.16;100194.47;5111311;27;19946;-87
2022/12/01 08:18:57;;;;;;;;;;;;;;;6.62;92.74;100198.88;5110677;27;19941;-88
2022/12/01 08:21:23;;;;;;;;;;;;;;;6.69;92.33;100205.03;5136696;27;19919;-87
2022/12/01 08:23:51;;;;;;;;;;;;;;;6.50;91.54;100204.00;5150429;27;19911;-86
2022/12/01 08:26:18;;;;;;;;;;;;;;;6.62;92.29;100196.25;5150683;27;19915;-88
2022/12/01 08:28:44;;;;;;;;;;;;;;;6.78;91.40;100195.53;5147223;27;20658;-88
2022/12/01 08:31:11;;;;;;;;;;;;;;;6.90;91.59;100188.63;5114096;27;19916;-87
2022/12/01 08:33:36;;;;;;;;;;;;;;;7.08;90.15;100193.13;5102985;27;19915;-88
2022/12/01 08:36:02;;;;;;;;;;;;;;;7.03;89.52;100186.97;5127984;27;19979;-88
2022/12/01 08:38:28;;;;;;;;;;;;;;;7.10;88.98;100178.28;5098723;27;20007;-88
2022/12/01 08:40:55;;;;;;;;;;;;;;;7.11;89.19;100183.53;5129093;27;19919;-88
2022/12/01 08:43:21;;;;;;;;;;;;;;;7.40;88.43;100177.59;5129737;27;19919;-87
2022/12/01 08:45:46;;;;;;;;;;;;;;;7.49;88.19;100180.28;5116113;27;20389;-88
2022/12/01 08:48:12;;;;;;;;;;;;;;;7.44;86.36;100174.09;5108698;28;19972;-88
2022/12/01 08:50:37;;;;;;;;;;;;;;;7.46;86.89;100175.00;5093353;27;19919;-88
2022/12/01 08:53:02;;;;;;;;;;;;;;;7.41;86.72;100171.47;5125188;27;20312;-87
2022/12/01 08:55:28;;;;;;;;;;;;;;;7.44;86.86;100168.84;5109006;28;19923;-89
2022/12/01 08:57:53;;;;;;;;;;;;;;;7.56;86.50;100157.53;5109095;28;19919;-87
2022/12/01 09:00:18;;;;;;;;;;;;;;;7.51;85.96;100162.78;5109506;28;20380;-88
2022/12/01 09:02:45;;;;;;;;;;;;;;;7.46;86.21;100166.22;5109152;28;20376;-88
2022/12/01 09:05:10;;;;;;;;;;;;;;;7.31;86.41;100159.16;5108168;28;20424;-87
2022/12/01 09:07:36;;;;;;;;;;;;;;;7.25;87.25;100161.75;5091165;28;19912;-88
2022/12/01 09:10:02;;;;;;;;;;;;;;;7.39;86.92;100151.34;5104905;27;20643;-87
2022/12/01 09:12:28;;;;;;;;;;;;;;;7.45;88.99;100154.88;5130025;27;20002;-87
2022/12/01 09:14:53;;;;;;;;;;;;;;;7.39;87.88;100152.22;5141895;27;19911;-87
2022/12/01 09:17:19;;;;;;;;;;;;;;;7.61;89.33;100149.69;5149734;27;19923;-87
2022/12/01 09:19:44;;;;;;;;;;;;;;;7.78;88.13;100144.50;5148846;27;19914;-88
2022/12/01 09:22:10;;;;;;;;;;;;;;;7.78;87.51;100145.38;5150009;27;19955;-87
2022/12/01 09:24:35;;;;;;;;;;;;;;;7.87;85.75;100150.66;5150019;27;19922;-87
2022/12/01 09:27:03;;;;;;;;;;;;;;;7.89;86.63;100143.69;5127965;27;19919;-87
2022/12/01 09:29:30;;;;;;;;;;;;;;;7.66;85.81;100138.34;5110115;27;19915;-88
2022/12/01 09:31:56;;;;;;;;;;;;;;;7.49;86.13;100137.38;5111308;27;19918;-88
2022/12/01 09:34:21;;;;;;;;;;;;;;;7.68;87.61;100136.59;5142150;27;19915;-89
2022/12/01 09:36:47;;;;;;;;;;;;;;;7.73;86.90;100130.50;5141380;27;19915;-88
2022/12/01 09:39:17;;;;;;;;;;;;;;;7.74;86.68;100133.13;5133698;27;20690;-88
2022/12/01 09:41:54;;;;;;;;;;;;;;;7.78;85.67;100134.00;5150830;27;19951;-87
2022/12/01 09:44:23;;;;;;;;;;;;;;;7.91;86.21;100135.81;5154010;27;19919;-88
2022/12/01 09:46:57;;;;;;;;;;;;;;;8.22;87.40;100136.75;5140112;27;19915;-87
2022/12/01 09:49:37;;;;;;;;;;;;;;;8.23;86.59;100121.84;5128542;27;19915;-88
2022/12/01 09:52:03;;;;;;;;;;;;;;;7.88;86.39;100126.16;5108213;28;19921;-88
2022/12/01 09:54:28;;;;;;;;;;;;;;;7.75;86.72;100126.09;5128605;27;19911;-87
2022/12/01 09:56:54;;;;;;;;;;;;;;;7.87;86.96;100124.38;5128356;27;19911;-87
2022/12/01 09:59:26;;;;;;;;;;;;;;;7.95;87.18;100121.78;5108354;27;19969;-87
2022/12/01 10:01:58;;;;;;;;;;;;;;;7.89;87.83;100122.66;5127799;27;19915;-87
2022/12/01 10:04:30;;;;;;;;;;;;;;;7.96;87.61;100120.91;5127864;27;20420;-88
2022/12/01 10:06:55;;;;;;;;;;;;;;;8.19;86.21;100120.09;5128358;27;19920;-88
2022/12/01 10:09:39;;;;;;;;;;;;;;;8.32;86.36;100120.97;5127009;27;20312;-87
2022/12/01 10:12:10;;;;;;;;;;;;;;;8.39;84.81;100118.34;5128057;27;20369;-88
2022/12/01 10:14:36;;;;;;;;;;;;;;;8.14;84.29;100113.94;5126671;27;19922;-85
2022/12/01 10:17:16;;;;;;;;;;;;;;;8.30;84.01;100113.09;5127778;27;19911;-86
2022/12/01 10:19:54;;;;;;;;;;;;;;;8.14;84.31;100111.31;5116434;27;19926;-86
2022/12/01 10:22:38;;;;;;;;;;;;;;;8.04;84.61;100113.91;5109348;28;19978;-87
2022/12/01 10:25:06;;;;;;;;;;;;;;;8.05;84.87;100112.19;5109254;28;20010;-89
2022/12/01 10:27:41;;;;;;;;;;;;;;;8.06;84.02;100114.81;5093506;28;19912;-85
2022/12/01 10:30:17;;;;;;;;;;;;;;;8.06;84.20;100109.56;5111229;28;19918;-85
2022/12/01 10:32:42;;;;;;;;;;;;;;;8.07;84.66;100118.31;5113610;28;19919;-87
2022/12/01 10:35:11;;;;;;;;;;;;;;;8.07;83.97;100115.69;5110562;28;19916;-86
2022/12/01 10:37:36;;;;;;;;;;;;;;;7.92;85.04;100116.53;5111033;28;19908;-87
2022/12/01 10:40:02;;;;;;;;;;;;;;;8.06;84.81;100106.03;5096467;28;19922;-88
2022/12/01 10:42:30;;;;;;;;;;;;;;;7.82;84.45;100104.25;5121914;28;19922;-86
2022/12/01 10:44:58;;;;;;;;;;;;;;;7.77;84.98;100101.63;5130633;28;19965;-86
2022/12/01 10:47:24;;;;;;;;;;;;;;;7.68;85.63;100094.56;5105169;27;19930;-86
2022/12/01 10:49:50;;;;;;;;;;;;;;;7.47;85.50;100099.75;5119897;27;20414;-86
2022/12/01 10:52:33;;;;;;;;;;;;;;;7.53;86.29;100095.38;5117937;28;19994;-85
2022/12/01 10:54:59;;;;;;;;;;;;;;;7.79;85.30;100099.84;5111289;28;19915;-86
2022/12/01 10:57:25;;;;;;;;;;;;;;;7.65;85.06;100093.69;5121082;28;19915;-85
2022/12/01 10:59:54;;;;;;;;;;;;;;;7.73;85.92;100093.72;5120795;27;19926;-85
2022/12/01 11:02:21;;;;;;;;;;;;;;;7.60;86.54;100095.41;5123595;27;19923;-85
2022/12/01 11:05:12;;;;;;;;;;;;;;;7.76;85.56;100094.59;5129947;27;20296;-85
2022/12/01 11:07:44;;;;;;;;;;;;;;;7.62;85.64;100085.81;5110911;27;19912;-85
2022/12/01 11:10:24;;;;;;;;;;;;;;;7.41;86.13;100094.47;5128995;27;19916;-85
2022/12/01 11:12:56;;;;;;;;;;;;;;;7.23;86.72;100085.66;5115555;27;19915;-85
2022/12/01 11:15:22;;;;;;;;;;;;;;;7.17;87.28;100088.25;5134695;27;19967;-88
2022/12/01 11:17:55;;;;;;;;;;;;;;;7.09;88.14;100082.06;5133949;27;19930;-86
2022/12/01 11:20:29;;;;;;;;;;;;;;;7.01;88.65;100087.25;5131007;27;19919;-86
2022/12/01 11:23:14;;;;;;;;;;;;;;;6.97;89.14;100089.00;5134780;27;20770;-88
2022/12/01 11:25:40;;;;;;;;;;;;;;;7.11;89.39;100083.84;5134748;27;20006;-88
2022/12/01 11:28:05;;;;;;;;;;;;;;;7.13;89.30;100074.22;5115477;27;20025;-87
2022/12/01 11:30:31;;;;;;;;;;;;;;;6.86;89.18;100080.19;5135151;27;19907;-86
2022/12/01 11:32:58;;;;;;;;;;;;;;;7.08;88.60;100077.72;5134794;27;19916;-88
2022/12/01 11:35:26;;;;;;;;;;;;;;;7.06;88.80;100074.19;5115152;27;20324;-86
2022/12/01 11:37:53;;;;;;;;;;;;;;;6.91;89.64;100070.59;5133119;27;20300;-85
2022/12/01 11:40:21;;;;;;;;;;;;;;;6.89;89.44;100077.59;5134553;27;19918;-85
2022/12/01 11:42:48;;;;;;;;;;;;;;;7.03;88.58;100075.06;5134416;27;20407;-85
2022/12/01 11:45:25;;;;;;;;;;;;;;;7.10;88.37;100071.56;5135030;27;19914;-87
2022/12/01 11:48:21;;;;;;;;;;;;;;;7.11;88.92;100078.59;5134975;27;19912;-86
2022/12/01 11:51:05;;;;;;;;;;;;;;;7.03;88.15;100082.03;5116325;27;20423;-86
2022/12/01 11:53:34;;;;;;;;;;;;;;;7.01;88.45;100075.91;5125604;27;20394;-85
2022/12/01 11:56:18;;;;;;;;;;;;;;;7.12;88.79;100063.72;5129627;27;19963;-85
2022/12/01 11:58:45;;;;;;;;;;;;;;;7.27;88.57;100066.41;5117837;27;19915;-86
2022/12/01 12:01:29;;;;;;;;;;;;;;;7.29;87.87;100067.31;5144021;27;19911;-88
2022/12/01 12:04:00;;;;;;;;;;;;;;;7.30;88.07;100069.03;5128559;27;19919;-86
2022/12/01 12:06:33;;;;;;;;;;;;;;;7.28;87.06;100069.94;5139064;27;19919;-85
2022/12/01 12:08:58;;;;;;;;;;;;;;;7.39;87.14;100077.84;5139562;27;20006;-85
2022/12/01 12:11:46;;;;;;;;;;;;;;;7.49;86.16;100069.13;5135296;27;20428;-87
2022/12/01 12:14:27;;;;;;;;;;;;;;;7.40;87.36;100072.59;5112035;27;19922;-87
2022/12/01 12:17:07;;;;;;;;;;;;;;;7.43;86.69;100075.25;5135535;27;19954;-88
2022/12/01 12:19:47;;;;;;;;;;;;;;;7.42;86.85;100077.88;5134226;27;19917;-88
2022/12/01 12:22:31;;;;;;;;;;;;;;;7.58;86.57;100079.66;5134233;27;19918;-88
2022/12/01 12:25:03;;;;;;;;;;;;;;;7.80;87.90;100069.22;5133522;27;19911;-88
2022/12/01 12:27:35;;;;;;;;;;;;;;;7.93;86.75;100068.38;5133196;27;19933;-88
2022/12/01 12:30:00;;;;;;;;;;;;;;;7.98;85.70;100071.00;5140106;27;19921;-88
2022/12/01 12:32:35;;;;;;;;;;;;;;;8.19;85.02;100072.78;5154041;27;20295;-89
2022/12/01 12:35:08;;;;;;;;;;;;;;;7.83;84.60;100061.34;5135928;27;19944;-88
2022/12/01 12:37:36;;;;;;;;;;;;;;;7.60;85.16;100062.19;5138736;27;19915;-88
2022/12/01 12:40:08;;;;;;;;;;;;;;;7.63;85.84;100070.06;5133472;27;20378;-89
2022/12/01 12:42:33;;;;;;;;;;;;;;;7.65;85.55;100065.69;5144993;27;19958;-89
2022/12/01 12:45:19;;;;;;;;;;;;;;;7.64;86.00;100069.16;5151220;27;19969;-87
2022/12/01 12:48:04;;;;;;;;;;;;;;;7.35;87.03;100066.44;5139030;27;19916;-87
2022/12/01 12:50:42;;;;;;;;;;;;;;;7.37;87.78;100064.72;5104855;27;20353;-88
2022/12/01 12:53:12;;;;;;;;;;;;;;;7.50;87.45;100060.38;5145084;27;20384;-86
2022/12/01 12:55:40;;;;;;;;;;;;;;;7.48;87.28;100065.63;5139856;27;19923;-86